sensor_id;sensor_type;location;lat;lon;timestamp;pressure;altitude;pressure_sealevel;temperature;humidity
62057;BME280;48016;50.284;18.860;2023-07-29T00:01:44;97570.54;;;16.91;89.96
62057;BME280;48016;50.284;18.860;2023-07-29T00:04:11;97569.31;;;16.91;89.74
62057;BME280;48016;50.284;18.860;2023-07-29T00:06:38;97571.91;;;16.90;89.64
62057;BME280;48016;50.284;18.860;2023-07-29T00:09:04;97577.02;;;16.89;89.72
62057;BME280;48016;50.284;18.860;2023-07-29T00:11:31;97573.63;;;16.90;89.93
62057;BME280;48016;50.284;18.860;2023-07-29T00:14:00;97576.98;;;16.88;89.70
62057;BME280;48016;50.284;18.860;2023-07-29T00:16:27;97583.27;;;16.88;89.54
62057;BME280;48016;50.284;18.860;2023-07-29T00:18:54;97585.89;;;16.84;89.62
62057;BME280;48016;50.284;18.860;2023-07-29T00:21:20;97583.16;;;16.84;89.78
62057;BME280;48016;50.284;18.860;2023-07-29T00:23:47;97582.29;;;16.86;89.93
62057;BME280;48016;50.284;18.860;2023-07-29T00:26:14;97584.75;;;16.88;90.01
62057;BME280;48016;50.284;18.860;2023-07-29T00:28:40;97582.39;;;16.90;90.04
62057;BME280;48016;50.284;18.860;2023-07-29T00:31:07;97581.79;;;16.92;90.27
62057;BME280;48016;50.284;18.860;2023-07-29T00:33:33;97580.31;;;16.94;90.30
62057;BME280;48016;50.284;18.860;2023-07-29T00:36:00;97578.63;;;16.97;90.32
62057;BME280;48016;50.284;18.860;2023-07-29T00:38:28;97574.71;;;17.00;90.62
62057;BME280;48016;50.284;18.860;2023-07-29T00:40:57;97574.35;;;17.03;90.82
62057;BME280;48016;50.284;18.860;2023-07-29T00:43:24;97571.54;;;17.08;91.04
62057;BME280;48016;50.284;18.860;2023-07-29T00:45:50;97568.51;;;17.11;90.86
62057;BME280;48016;50.284;18.860;2023-07-29T00:48:18;97566.98;;;17.15;91.28
62057;BME280;48016;50.284;18.860;2023-07-29T00:50:44;97564.06;;;17.18;91.51
62057;BME280;48016;50.284;18.860;2023-07-29T00:53:11;97562.83;;;17.21;91.40
62057;BME280;48016;50.284;18.860;2023-07-29T00:55:38;97569.07;;;17.26;91.58
62057;BME280;48016;50.284;18.860;2023-07-29T00:58:04;97566.15;;;17.29;91.28
62057;BME280;48016;50.284;18.860;2023-07-29T01:00:31;97561.91;;;17.30;91.24
62057;BME280;48016;50.284;18.860;2023-07-29T01:02:57;97562.15;;;17.32;91.34
62057;BME280;48016;50.284;18.860;2023-07-29T01:05:26;97559.55;;;17.32;91.62
62057;BME280;48016;50.284;18.860;2023-07-29T01:08:21;97557.30;;;17.34;91.57
62057;BME280;48016;50.284;18.860;2023-07-29T01:13:55;97553.91;;;17.38;91.60
62057;BME280;48016;50.284;18.860;2023-07-29T01:16:31;97553.59;;;17.38;91.49
62057;BME280;48016;50.284;18.860;2023-07-29T01:19:05;97558.48;;;17.39;91.61
62057;BME280;48016;50.284;18.860;2023-07-29T01:21:34;97559.64;;;17.43;91.67
62057;BME280;48016;50.284;18.860;2023-07-29T01:24:01;97554.98;;;17.45;91.62
62057;BME280;48016;50.284;18.860;2023-07-29T01:26:28;97560.44;;;17.49;91.64
62057;BME280;48016;50.284;18.860;2023-07-29T01:28:56;97558.80;;;17.53;91.62
62057;BME280;48016;50.284;18.860;2023-07-29T01:31:43;97553.34;;;17.55;91.50
62057;BME280;48016;50.284;18.860;2023-07-29T01:34:26;97555.92;;;17.56;91.77
62057;BME280;48016;50.284;18.860;2023-07-29T01:36:57;97559.51;;;17.59;91.76
62057;BME280;48016;50.284;18.860;2023-07-29T01:39:27;97560.69;;;17.61;91.64
62057;BME280;48016;50.284;18.860;2023-07-29T01:41:55;97563.08;;;17.62;91.27
62057;BME280;48016;50.284;18.860;2023-07-29T01:44:22;97560.78;;;17.61;91.44
62057;BME280;48016;50.284;18.860;2023-07-29T01:46:49;97560.91;;;17.61;91.40
62057;BME280;48016;50.284;18.860;2023-07-29T01:49:16;97561.67;;;17.61;91.43
62057;BME280;48016;50.284;18.860;2023-07-29T01:51:42;97563.47;;;17.61;91.61
62057;BME280;48016;50.284;18.860;2023-07-29T01:54:09;97567.94;;;17.62;91.61
62057;BME280;48016;50.284;18.860;2023-07-29T01:56:36;97568.56;;;17.62;91.45
62057;BME280;48016;50.284;18.860;2023-07-29T01:59:03;97571.20;;;17.64;91.56
62057;BME280;48016;50.284;18.860;2023-07-29T02:01:30;97573.98;;;17.67;91.68
62057;BME280;48016;50.284;18.860;2023-07-29T02:03:57;97574.62;;;17.69;91.56
62057;BME280;48016;50.284;18.860;2023-07-29T02:06:24;97577.75;;;17.71;91.37
62057;BME280;48016;50.284;18.860;2023-07-29T02:08:51;97579.77;;;17.71;91.40
62057;BME280;48016;50.284;18.860;2023-07-29T02:11:17;97583.41;;;17.71;91.44
62057;BME280;48016;50.284;18.860;2023-07-29T02:13:46;97577.81;;;17.72;91.37
62057;BME280;48016;50.284;18.860;2023-07-29T02:16:13;97580.81;;;17.71;91.36
62057;BME280;48016;50.284;18.860;2023-07-29T02:18:39;97579.00;;;17.71;91.37
62057;BME280;48016;50.284;18.860;2023-07-29T02:21:06;97582.32;;;17.71;91.30
62057;BME280;48016;50.284;18.860;2023-07-29T02:23:32;97582.92;;;17.73;91.39
62057;BME280;48016;50.284;18.860;2023-07-29T02:25:59;97584.41;;;17.74;91.31
62057;BME280;48016;50.284;18.860;2023-07-29T02:28:26;97579.30;;;17.74;91.24
62057;BME280;48016;50.284;18.860;2023-07-29T02:31:16;97578.80;;;17.73;91.29
62057;BME280;48016;50.284;18.860;2023-07-29T02:33:43;97580.33;;;17.72;91.15
62057;BME280;48016;50.284;18.860;2023-07-29T02:36:12;97578.58;;;17.70;91.17
62057;BME280;48016;50.284;18.860;2023-07-29T02:38:40;97581.80;;;17.69;90.90
62057;BME280;48016;50.284;18.860;2023-07-29T02:41:07;97585.06;;;17.65;90.51
62057;BME280;48016;50.284;18.860;2023-07-29T02:43:36;97581.43;;;17.60;90.56
62057;BME280;48016;50.284;18.860;2023-07-29T02:46:02;97581.94;;;17.58;90.57
62057;BME280;48016;50.284;18.860;2023-07-29T02:48:29;97586.75;;;17.56;90.47
62057;BME280;48016;50.284;18.860;2023-07-29T02:50:56;97591.41;;;17.54;90.44
62057;BME280;48016;50.284;18.860;2023-07-29T02:53:22;97591.20;;;17.51;90.19
62057;BME280;48016;50.284;18.860;2023-07-29T02:55:49;97594.73;;;17.48;90.22
62057;BME280;48016;50.284;18.860;2023-07-29T02:58:16;97593.67;;;17.46;89.95
62057;BME280;48016;50.284;18.860;2023-07-29T03:00:42;97586.84;;;17.41;90.01
62057;BME280;48016;50.284;18.860;2023-07-29T03:03:09;97586.86;;;17.39;90.06
62057;BME280;48016;50.284;18.860;2023-07-29T03:05:36;97589.02;;;17.36;89.96
62057;BME280;48016;50.284;18.860;2023-07-29T03:08:03;97592.20;;;17.33;89.90
62057;BME280;48016;50.284;18.860;2023-07-29T03:10:30;97593.77;;;17.32;90.11
62057;BME280;48016;50.284;18.860;2023-07-29T03:12:56;97594.80;;;17.30;89.94
62057;BME280;48016;50.284;18.860;2023-07-29T03:15:24;97595.75;;;17.29;90.00
62057;BME280;48016;50.284;18.860;2023-07-29T03:17:52;97599.77;;;17.28;89.85
62057;BME280;48016;50.284;18.860;2023-07-29T03:20:19;97598.80;;;17.26;89.78
62057;BME280;48016;50.284;18.860;2023-07-29T03:22:46;97598.38;;;17.24;90.02
62057;BME280;48016;50.284;18.860;2023-07-29T03:25:13;97602.43;;;17.25;89.76
62057;BME280;48016;50.284;18.860;2023-07-29T03:27:40;97600.12;;;17.26;89.85
62057;BME280;48016;50.284;18.860;2023-07-29T03:30:07;97598.32;;;17.26;89.98
62057;BME280;48016;50.284;18.860;2023-07-29T03:32:33;97598.44;;;17.30;89.91
62057;BME280;48016;50.284;18.860;2023-07-29T03:35:00;97599.83;;;17.32;89.70
62057;BME280;48016;50.284;18.860;2023-07-29T03:37:27;97598.73;;;17.34;89.70
62057;BME280;48016;50.284;18.860;2023-07-29T03:39:53;97599.31;;;17.36;89.67
62057;BME280;48016;50.284;18.860;2023-07-29T03:42:20;97596.61;;;17.38;89.75
62057;BME280;48016;50.284;18.860;2023-07-29T03:44:46;97602.23;;;17.42;89.68
62057;BME280;48016;50.284;18.860;2023-07-29T03:47:13;97599.19;;;17.45;89.70
62057;BME280;48016;50.284;18.860;2023-07-29T03:49:39;97600.60;;;17.50;89.71
62057;BME280;48016;50.284;18.860;2023-07-29T03:52:06;97602.50;;;17.56;89.56
62057;BME280;48016;50.284;18.860;2023-07-29T03:54:33;97604.27;;;17.60;89.49
62057;BME280;48016;50.284;18.860;2023-07-29T03:56:59;97603.08;;;17.66;89.48
62057;BME280;48016;50.284;18.860;2023-07-29T03:59:26;97602.95;;;17.72;89.26
62057;BME280;48016;50.284;18.860;2023-07-29T04:01:52;97609.20;;;17.78;89.45
62057;BME280;48016;50.284;18.860;2023-07-29T04:04:19;97606.98;;;17.87;89.54
62057;BME280;48016;50.284;18.860;2023-07-29T04:06:45;97615.55;;;17.98;89.21
62057;BME280;48016;50.284;18.860;2023-07-29T04:09:12;97618.02;;;18.10;89.15
62057;BME280;48016;50.284;18.860;2023-07-29T04:11:39;97622.88;;;18.22;89.22
62057;BME280;48016;50.284;18.860;2023-07-29T04:14:06;97623.91;;;18.36;89.13
62057;BME280;48016;50.284;18.860;2023-07-29T04:16:32;97619.91;;;18.51;89.07
62057;BME280;48016;50.284;18.860;2023-07-29T04:18:59;97618.73;;;18.68;88.88
62057;BME280;48016;50.284;18.860;2023-07-29T04:21:25;97622.27;;;18.84;88.84
62057;BME280;48016;50.284;18.860;2023-07-29T04:23:52;97619.69;;;19.04;88.61
62057;BME280;48016;50.284;18.860;2023-07-29T04:26:19;97619.33;;;19.27;88.52
62057;BME280;48016;50.284;18.860;2023-07-29T04:28:45;97619.48;;;19.51;88.24
62057;BME280;48016;50.284;18.860;2023-07-29T04:31:12;97620.83;;;19.81;87.80
62057;BME280;48016;50.284;18.860;2023-07-29T04:33:38;97620.13;;;20.11;87.18
62057;BME280;48016;50.284;18.860;2023-07-29T04:36:05;97615.81;;;20.43;86.55
62057;BME280;48016;50.284;18.860;2023-07-29T04:38:33;97618.77;;;20.63;85.72
62057;BME280;48016;50.284;18.860;2023-07-29T04:41:00;97614.53;;;20.72;84.86
62057;BME280;48016;50.284;18.860;2023-07-29T04:43:33;97615.28;;;20.89;84.56
62057;BME280;48016;50.284;18.860;2023-07-29T04:45:59;97613.30;;;21.04;84.33
62057;BME280;48016;50.284;18.860;2023-07-29T04:48:26;97614.59;;;21.42;83.74
62057;BME280;48016;50.284;18.860;2023-07-29T04:50:52;97617.88;;;21.78;82.84
62057;BME280;48016;50.284;18.860;2023-07-29T04:53:19;97623.36;;;22.13;81.29
62057;BME280;48016;50.284;18.860;2023-07-29T04:55:46;97628.52;;;22.40;80.33
62057;BME280;48016;50.284;18.860;2023-07-29T04:58:12;97627.48;;;22.42;78.73
62057;BME280;48016;50.284;18.860;2023-07-29T05:00:39;97623.21;;;22.29;77.97
62057;BME280;48016;50.284;18.860;2023-07-29T05:03:05;97627.95;;;22.29;77.71
62057;BME280;48016;50.284;18.860;2023-07-29T05:05:32;97629.16;;;22.36;76.98
62057;BME280;48016;50.284;18.860;2023-07-29T05:07:59;97631.88;;;22.40;76.24
62057;BME280;48016;50.284;18.860;2023-07-29T05:10:25;97635.65;;;22.53;76.20
62057;BME280;48016;50.284;18.860;2023-07-29T05:12:52;97642.00;;;22.69;75.25
62057;BME280;48016;50.284;18.860;2023-07-29T05:15:18;97644.54;;;22.77;74.95
62057;BME280;48016;50.284;18.860;2023-07-29T05:17:45;97645.25;;;22.83;74.29
62057;BME280;48016;50.284;18.860;2023-07-29T05:20:12;97648.56;;;23.09;73.83
62057;BME280;48016;50.284;18.860;2023-07-29T05:22:38;97650.15;;;23.43;73.17
62057;BME280;48016;50.284;18.860;2023-07-29T05:25:05;97649.62;;;23.78;72.72
62057;BME280;48016;50.284;18.860;2023-07-29T05:27:32;97650.92;;;24.06;72.80
62057;BME280;48016;50.284;18.860;2023-07-29T05:29:59;97653.58;;;24.33;72.00
62057;BME280;48016;50.284;18.860;2023-07-29T05:32:25;97648.24;;;24.59;70.58
62057;BME280;48016;50.284;18.860;2023-07-29T05:34:52;97649.34;;;24.74;70.12
62057;BME280;48016;50.284;18.860;2023-07-29T05:37:18;97648.61;;;24.73;69.68
62057;BME280;48016;50.284;18.860;2023-07-29T05:39:45;97646.59;;;24.63;69.36
62057;BME280;48016;50.284;18.860;2023-07-29T05:42:11;97649.80;;;24.58;69.53
62057;BME280;48016;50.284;18.860;2023-07-29T05:44:38;97646.95;;;24.58;69.58
62057;BME280;48016;50.284;18.860;2023-07-29T05:47:04;97645.71;;;24.74;69.25
62057;BME280;48016;50.284;18.860;2023-07-29T05:49:31;97646.91;;;25.00;68.53
62057;BME280;48016;50.284;18.860;2023-07-29T05:51:58;97647.16;;;25.20;67.17
62057;BME280;48016;50.284;18.860;2023-07-29T05:54:25;97647.20;;;25.36;66.73
62057;BME280;48016;50.284;18.860;2023-07-29T05:56:51;97651.70;;;25.49;66.33
62057;BME280;48016;50.284;18.860;2023-07-29T05:59:18;97650.17;;;25.66;65.65
62057;BME280;48016;50.284;18.860;2023-07-29T06:01:44;97650.33;;;25.94;65.64
62057;BME280;48016;50.284;18.860;2023-07-29T06:04:11;97649.79;;;26.21;64.75
62057;BME280;48016;50.284;18.860;2023-07-29T06:06:37;97650.86;;;26.36;63.73
62057;BME280;48016;50.284;18.860;2023-07-29T06:09:04;97655.95;;;26.54;63.28
62057;BME280;48016;50.284;18.860;2023-07-29T06:11:31;97661.92;;;26.81;62.30
62057;BME280;48016;50.284;18.860;2023-07-29T06:13:57;97661.30;;;27.09;62.37
62057;BME280;48016;50.284;18.860;2023-07-29T06:16:24;97662.13;;;27.33;61.71
62057;BME280;48016;50.284;18.860;2023-07-29T06:18:50;97664.23;;;27.38;61.23
62057;BME280;48016;50.284;18.860;2023-07-29T06:21:19;97671.43;;;27.21;61.10
62057;BME280;48016;50.284;18.860;2023-07-29T06:23:46;97668.11;;;27.30;60.95
62057;BME280;48016;50.284;18.860;2023-07-29T06:26:13;97670.38;;;27.59;60.64
62057;BME280;48016;50.284;18.860;2023-07-29T06:28:39;97669.47;;;27.89;60.19
62057;BME280;48016;50.284;18.860;2023-07-29T06:31:06;97669.90;;;28.15;59.71
62057;BME280;48016;50.284;18.860;2023-07-29T06:33:32;97667.72;;;28.35;59.07
62057;BME280;48016;50.284;18.860;2023-07-29T06:35:59;97668.63;;;28.39;58.64
62057;BME280;48016;50.284;18.860;2023-07-29T06:38:25;97672.18;;;28.46;57.74
62057;BME280;48016;50.284;18.860;2023-07-29T06:40:52;97671.61;;;28.57;57.02
62057;BME280;48016;50.284;18.860;2023-07-29T06:43:18;97674.17;;;28.49;57.34
62057;BME280;48016;50.284;18.860;2023-07-29T06:45:45;97680.85;;;28.16;57.20
62057;BME280;48016;50.284;18.860;2023-07-29T06:48:12;97684.39;;;27.72;56.89
62057;BME280;48016;50.284;18.860;2023-07-29T06:50:38;97681.48;;;27.33;57.41
62057;BME280;48016;50.284;18.860;2023-07-29T06:53:05;97681.91;;;27.09;57.81
62057;BME280;48016;50.284;18.860;2023-07-29T06:55:32;97680.75;;;27.12;58.32
62057;BME280;48016;50.284;18.860;2023-07-29T06:57:59;97681.27;;;27.09;58.78
62057;BME280;48016;50.284;18.860;2023-07-29T07:00:25;97682.08;;;26.84;58.97
62057;BME280;48016;50.284;18.860;2023-07-29T07:02:52;97678.31;;;26.50;59.38
62057;BME280;48016;50.284;18.860;2023-07-29T07:05:19;97676.33;;;26.18;59.69
62057;BME280;48016;50.284;18.860;2023-07-29T07:07:46;97678.49;;;25.94;60.40
62057;BME280;48016;50.284;18.860;2023-07-29T07:10:14;97678.58;;;25.81;61.01
62057;BME280;48016;50.284;18.860;2023-07-29T07:12:40;97681.64;;;25.80;61.14
62057;BME280;48016;50.284;18.860;2023-07-29T07:15:07;97681.85;;;25.91;61.30
62057;BME280;48016;50.284;18.860;2023-07-29T07:17:34;97679.73;;;26.02;61.46
62057;BME280;48016;50.284;18.860;2023-07-29T07:20:00;97673.50;;;26.24;61.20
62057;BME280;48016;50.284;18.860;2023-07-29T07:22:27;97676.27;;;26.51;60.49
62057;BME280;48016;50.284;18.860;2023-07-29T07:24:54;97675.32;;;26.81;60.60
62057;BME280;48016;50.284;18.860;2023-07-29T07:27:20;97678.34;;;27.15;59.88
62057;BME280;48016;50.284;18.860;2023-07-29T07:29:47;97676.14;;;27.47;59.02
62057;BME280;48016;50.284;18.860;2023-07-29T07:32:13;97675.55;;;27.77;58.59
62057;BME280;48016;50.284;18.860;2023-07-29T07:34:40;97678.94;;;28.03;58.01
62057;BME280;48016;50.284;18.860;2023-07-29T07:37:06;97676.61;;;28.33;56.76
62057;BME280;48016;50.284;18.860;2023-07-29T07:39:33;97672.23;;;28.56;55.72
62057;BME280;48016;50.284;18.860;2023-07-29T07:41:59;97671.88;;;28.65;54.74
62057;BME280;48016;50.284;18.860;2023-07-29T07:44:26;97672.32;;;28.74;52.89
62057;BME280;48016;50.284;18.860;2023-07-29T07:46:52;97672.64;;;28.46;52.99
62057;BME280;48016;50.284;18.860;2023-07-29T07:49:19;97675.74;;;28.12;53.74
62057;BME280;48016;50.284;18.860;2023-07-29T07:51:46;97678.16;;;27.94;54.20
62057;BME280;48016;50.284;18.860;2023-07-29T07:54:13;97679.04;;;27.84;54.88
62057;BME280;48016;50.284;18.860;2023-07-29T07:56:39;97676.20;;;27.87;55.04
62057;BME280;48016;50.284;18.860;2023-07-29T07:59:06;97670.69;;;27.92;54.50
62057;BME280;48016;50.284;18.860;2023-07-29T08:01:39;97670.27;;;27.89;54.68
62057;BME280;48016;50.284;18.860;2023-07-29T08:04:06;97672.00;;;27.79;55.53
62057;BME280;48016;50.284;18.860;2023-07-29T08:06:33;97667.96;;;27.64;55.40
62057;BME280;48016;50.284;18.860;2023-07-29T08:09:00;97668.51;;;27.46;55.68
62057;BME280;48016;50.284;18.860;2023-07-29T08:11:26;97664.17;;;27.39;56.35
62057;BME280;48016;50.284;18.860;2023-07-29T08:13:53;97665.00;;;27.34;55.99
62057;BME280;48016;50.284;18.860;2023-07-29T08:16:19;97661.36;;;27.27;56.18
62057;BME280;48016;50.284;18.860;2023-07-29T08:18:46;97656.80;;;27.24;56.25
62057;BME280;48016;50.284;18.860;2023-07-29T08:21:13;97655.12;;;27.22;56.66
62057;BME280;48016;50.284;18.860;2023-07-29T08:23:40;97654.27;;;27.23;57.09
62057;BME280;48016;50.284;18.860;2023-07-29T08:26:06;97654.21;;;27.26;56.75
62057;BME280;48016;50.284;18.860;2023-07-29T08:28:38;97657.16;;;27.28;56.39
62057;BME280;48016;50.284;18.860;2023-07-29T08:31:05;97655.76;;;27.23;55.94
62057;BME280;48016;50.284;18.860;2023-07-29T08:33:32;97654.86;;;27.16;56.14
62057;BME280;48016;50.284;18.860;2023-07-29T08:36:00;97658.09;;;27.06;56.30
62057;BME280;48016;50.284;18.860;2023-07-29T08:38:27;97659.14;;;27.01;56.30
62057;BME280;48016;50.284;18.860;2023-07-29T08:43:38;97657.79;;;27.14;56.46
62057;BME280;48016;50.284;18.860;2023-07-29T08:46:05;97649.95;;;27.30;55.84
62057;BME280;48016;50.284;18.860;2023-07-29T08:48:40;97649.50;;;27.47;55.51
62057;BME280;48016;50.284;18.860;2023-07-29T08:51:08;97646.08;;;27.64;56.32
62057;BME280;48016;50.284;18.860;2023-07-29T08:53:36;97643.55;;;27.82;55.23
62057;BME280;48016;50.284;18.860;2023-07-29T08:56:03;97638.89;;;27.96;54.73
62057;BME280;48016;50.284;18.860;2023-07-29T08:58:31;97640.45;;;28.05;55.17
62057;BME280;48016;50.284;18.860;2023-07-29T09:00:59;97636.58;;;28.06;54.59
62057;BME280;48016;50.284;18.860;2023-07-29T09:03:26;97633.71;;;28.06;54.54
62057;BME280;48016;50.284;18.860;2023-07-29T09:05:53;97633.41;;;28.08;54.72
62057;BME280;48016;50.284;18.860;2023-07-29T09:08:21;97633.83;;;28.11;54.51
62057;BME280;48016;50.284;18.860;2023-07-29T09:10:48;97636.02;;;27.93;54.55
62057;BME280;48016;50.284;18.860;2023-07-29T09:13:14;97634.71;;;27.71;54.45
62057;BME280;48016;50.284;18.860;2023-07-29T09:15:41;97631.73;;;27.56;54.24
62057;BME280;48016;50.284;18.860;2023-07-29T09:18:16;97627.30;;;27.50;54.28
62057;BME280;48016;50.284;18.860;2023-07-29T09:20:43;97625.26;;;27.42;54.82
62057;BME280;48016;50.284;18.860;2023-07-29T09:23:10;97622.69;;;27.37;54.97
62057;BME280;48016;50.284;18.860;2023-07-29T09:25:37;97618.16;;;27.47;55.44
62057;BME280;48016;50.284;18.860;2023-07-29T09:28:12;97621.83;;;27.68;54.80
62057;BME280;48016;50.284;18.860;2023-07-29T09:30:41;97622.45;;;27.94;54.02
62057;BME280;48016;50.284;18.860;2023-07-29T09:33:09;97625.86;;;27.93;51.30
62057;BME280;48016;50.284;18.860;2023-07-29T09:35:37;97623.73;;;27.84;50.97
62057;BME280;48016;50.284;18.860;2023-07-29T09:38:05;97621.07;;;27.79;51.37
62057;BME280;48016;50.284;18.860;2023-07-29T09:40:39;97615.14;;;27.81;51.92
62057;BME280;48016;50.284;18.860;2023-07-29T09:43:08;97618.70;;;27.81;52.13
62057;BME280;48016;50.284;18.860;2023-07-29T09:45:37;97617.52;;;27.73;52.36
62057;BME280;48016;50.284;18.860;2023-07-29T09:48:04;97616.08;;;27.63;52.35
62057;BME280;48016;50.284;18.860;2023-07-29T09:50:35;97612.45;;;27.47;52.33
62057;BME280;48016;50.284;18.860;2023-07-29T09:53:02;97608.86;;;27.27;52.27
62057;BME280;48016;50.284;18.860;2023-07-29T09:55:32;97604.69;;;27.21;52.72
62057;BME280;48016;50.284;18.860;2023-07-29T09:58:00;97605.42;;;27.31;53.55
62057;BME280;48016;50.284;18.860;2023-07-29T10:00:30;97601.01;;;27.44;53.85
62057;BME280;48016;50.284;18.860;2023-07-29T10:02:58;97595.57;;;27.38;53.37
62057;BME280;48016;50.284;18.860;2023-07-29T10:05:28;97596.97;;;27.27;52.53
62057;BME280;48016;50.284;18.860;2023-07-29T10:07:56;97592.61;;;27.26;52.25
62057;BME280;48016;50.284;18.860;2023-07-29T10:10:23;97593.17;;;27.37;52.99
62057;BME280;48016;50.284;18.860;2023-07-29T10:12:50;97589.67;;;27.45;53.65
62057;BME280;48016;50.284;18.860;2023-07-29T10:15:17;97589.30;;;27.37;53.44
62057;BME280;48016;50.284;18.860;2023-07-29T10:17:43;97586.69;;;27.39;52.68
62057;BME280;48016;50.284;18.860;2023-07-29T10:20:12;97584.11;;;27.34;51.82
62057;BME280;48016;50.284;18.860;2023-07-29T10:22:40;97582.66;;;27.32;51.62
62057;BME280;48016;50.284;18.860;2023-07-29T10:25:10;97580.27;;;27.38;52.13
62057;BME280;48016;50.284;18.860;2023-07-29T10:27:43;97577.26;;;27.48;52.19
62057;BME280;48016;50.284;18.860;2023-07-29T10:30:11;97579.93;;;27.56;52.59
62057;BME280;48016;50.284;18.860;2023-07-29T10:32:44;97583.70;;;27.61;52.75
62057;BME280;48016;50.284;18.860;2023-07-29T10:35:15;97580.20;;;27.79;52.51
62057;BME280;48016;50.284;18.860;2023-07-29T10:37:42;97578.70;;;27.92;52.00
62057;BME280;48016;50.284;18.860;2023-07-29T10:40:11;97580.05;;;28.03;51.45
62057;BME280;48016;50.284;18.860;2023-07-29T10:42:38;97580.24;;;28.10;51.12
62057;BME280;48016;50.284;18.860;2023-07-29T10:45:20;97577.09;;;28.15;51.09
62057;BME280;48016;50.284;18.860;2023-07-29T10:47:48;97576.91;;;28.25;50.17
62057;BME280;48016;50.284;18.860;2023-07-29T10:50:21;97576.20;;;28.28;49.41
62057;BME280;48016;50.284;18.860;2023-07-29T10:52:52;97573.83;;;28.28;49.99
62057;BME280;48016;50.284;18.860;2023-07-29T10:55:31;97574.17;;;28.35;50.20
62057;BME280;48016;50.284;18.860;2023-07-29T10:58:12;97574.34;;;28.36;50.32
62057;BME280;48016;50.284;18.860;2023-07-29T11:00:41;97573.52;;;28.30;50.44
62057;BME280;48016;50.284;18.860;2023-07-29T11:03:08;97571.58;;;28.24;49.74
62057;BME280;48016;50.284;18.860;2023-07-29T11:05:41;97566.52;;;28.31;49.52
62057;BME280;48016;50.284;18.860;2023-07-29T11:08:41;97564.01;;;28.35;49.52
62057;BME280;48016;50.284;18.860;2023-07-29T11:11:11;97563.43;;;28.31;49.03
62057;BME280;48016;50.284;18.860;2023-07-29T11:13:38;97564.00;;;28.36;49.53
62057;BME280;48016;50.284;18.860;2023-07-29T11:16:05;97554.13;;;28.42;49.63
62057;BME280;48016;50.284;18.860;2023-07-29T11:18:34;97556.30;;;28.47;49.82
62057;BME280;48016;50.284;18.860;2023-07-29T11:21:02;97553.20;;;28.47;49.54
62057;BME280;48016;50.284;18.860;2023-07-29T11:23:34;97549.55;;;28.46;49.17
62057;BME280;48016;50.284;18.860;2023-07-29T11:26:03;97551.15;;;28.49;48.88
62057;BME280;48016;50.284;18.860;2023-07-29T11:28:29;97551.33;;;28.53;49.10
62057;BME280;48016;50.284;18.860;2023-07-29T11:30:56;97547.59;;;28.56;49.28
62057;BME280;48016;50.284;18.860;2023-07-29T11:33:27;97548.05;;;28.50;49.31
62057;BME280;48016;50.284;18.860;2023-07-29T11:35:54;97547.67;;;28.39;49.01
62057;BME280;48016;50.284;18.860;2023-07-29T11:38:22;97543.16;;;28.42;49.04
62057;BME280;48016;50.284;18.860;2023-07-29T11:40:56;97537.84;;;28.42;49.05
62057;BME280;48016;50.284;18.860;2023-07-29T11:43:23;97537.33;;;28.35;48.99
62057;BME280;48016;50.284;18.860;2023-07-29T11:45:51;97540.16;;;28.31;48.98
62057;BME280;48016;50.284;18.860;2023-07-29T11:48:26;97538.16;;;28.27;49.18
62057;BME280;48016;50.284;18.860;2023-07-29T11:50:53;97526.88;;;28.23;49.24
62057;BME280;48016;50.284;18.860;2023-07-29T11:53:21;97531.66;;;28.11;49.12
62057;BME280;48016;50.284;18.860;2023-07-29T11:55:51;97535.48;;;27.96;49.39
62057;BME280;48016;50.284;18.860;2023-07-29T11:58:21;97536.33;;;27.93;49.64
62057;BME280;48016;50.284;18.860;2023-07-29T12:00:48;97532.98;;;27.90;49.72
62057;BME280;48016;50.284;18.860;2023-07-29T12:03:15;97533.35;;;27.87;49.82
62057;BME280;48016;50.284;18.860;2023-07-29T12:05:44;97531.46;;;27.88;49.68
62057;BME280;48016;50.284;18.860;2023-07-29T12:08:11;97525.44;;;27.88;49.66
62057;BME280;48016;50.284;18.860;2023-07-29T12:10:38;97525.20;;;27.91;49.39
62057;BME280;48016;50.284;18.860;2023-07-29T12:13:07;97521.96;;;27.91;48.92
62057;BME280;48016;50.284;18.860;2023-07-29T12:15:34;97520.27;;;27.89;48.90
62057;BME280;48016;50.284;18.860;2023-07-29T12:18:01;97517.16;;;27.86;48.94
62057;BME280;48016;50.284;18.860;2023-07-29T12:20:28;97514.02;;;27.79;49.20
62057;BME280;48016;50.284;18.860;2023-07-29T12:22:57;97507.91;;;27.69;49.34
62057;BME280;48016;50.284;18.860;2023-07-29T12:25:25;97505.39;;;27.59;49.54
62057;BME280;48016;50.284;18.860;2023-07-29T12:27:52;97504.97;;;27.55;49.93
62057;BME280;48016;50.284;18.860;2023-07-29T12:30:22;97501.27;;;27.59;49.98
62057;BME280;48016;50.284;18.860;2023-07-29T12:32:49;97501.55;;;27.66;50.35
62057;BME280;48016;50.284;18.860;2023-07-29T12:35:16;97500.12;;;27.66;49.82
62057;BME280;48016;50.284;18.860;2023-07-29T12:37:42;97497.55;;;27.61;49.45
62057;BME280;48016;50.284;18.860;2023-07-29T12:40:22;97499.44;;;27.46;49.44
62057;BME280;48016;50.284;18.860;2023-07-29T12:42:50;97500.39;;;27.36;49.94
62057;BME280;48016;50.284;18.860;2023-07-29T12:45:17;97500.71;;;27.36;50.17
62057;BME280;48016;50.284;18.860;2023-07-29T12:47:44;97493.20;;;27.40;50.71
62057;BME280;48016;50.284;18.860;2023-07-29T12:50:11;97489.10;;;27.43;50.75
62057;BME280;48016;50.284;18.860;2023-07-29T12:52:37;97488.45;;;27.42;50.78
62057;BME280;48016;50.284;18.860;2023-07-29T12:55:04;97488.33;;;27.44;50.80
62057;BME280;48016;50.284;18.860;2023-07-29T12:57:31;97486.08;;;27.40;50.44
62057;BME280;48016;50.284;18.860;2023-07-29T12:59:57;97488.20;;;27.39;50.49